Time;durP1;ratioP1;P1;durP2;ratioP2;P2;SDS_P1;SDS_P2;PMS_P1;PMS_P2;Temp;Humidity;BMP_temperature;BMP_pressure;BME280_temperature;BME280_humidity;BME280_pressure;Samples;Min_cycle;Max_cycle;Signal;HPM_P1;HPM_P2
2021/01/07 00:00:20;;;;;;;22.90;11.77;;;5.00;93.20;;;;;;5053823;28;20463;-69
2021/01/07 00:02:46;;;;;;;20.58;10.90;;;5.00;93.20;;;;;;5053852;28;20127;-68
2021/01/07 00:05:12;;;;;;;19.55;11.43;;;5.00;93.20;;;;;;5053877;28;20056;-69
2021/01/07 00:07:38;;;;;;;16.58;9.68;;;5.00;93.20;;;;;;5052624;28;20021;-69
2021/01/07 00:10:05;;;;;;;19.45;10.60;;;5.00;93.20;;;;;;5052043;28;20459;-69
2021/01/07 00:12:31;;;;;;;17.48;10.35;;;5.00;93.20;;;;;;5052419;28;20395;-69
2021/01/07 00:14:57;;;;;;;22.10;11.82;;;5.00;93.20;;;;;;5052001;28;20033;-69
2021/01/07 00:17:23;;;;;;;23.40;12.98;;;5.10;93.20;;;;;;5053555;28;20036;-69
2021/01/07 00:19:48;;;;;;;24.45;14.30;;;5.10;93.20;;;;;;5053447;28;20383;-69
2021/01/07 00:22:14;;;;;;;94.22;33.08;;;5.10;93.20;;;;;;5053387;28;20029;-69
2021/01/07 00:24:40;;;;;;;41.22;20.50;;;5.10;93.20;;;;;;5052179;28;20124;-69
2021/01/07 00:27:06;;;;;;;24.92;13.32;;;5.10;93.20;;;;;;5053164;28;20091;-69
2021/01/07 00:29:32;;;;;;;23.63;12.45;;;5.10;93.10;;;;;;5051827;28;20028;-69
2021/01/07 00:31:58;;;;;;;17.75;9.85;;;5.00;93.00;;;;;;5051876;28;20033;-69
2021/01/07 00:34:23;;;;;;;19.13;10.98;;;5.00;92.80;;;;;;5053083;28;20411;-69
2021/01/07 00:36:57;;;;;;;20.40;10.88;;;5.00;92.90;;;;;;5053560;28;20025;-69
2021/01/07 00:39:23;;;;;;;16.98;8.35;;;5.00;93.00;;;;;;5052873;28;20104;-69
2021/01/07 00:42:07;;;;;;;18.70;10.57;;;5.00;93.10;;;;;;5052358;28;20035;-69
2021/01/07 00:44:33;;;;;;;23.77;12.10;;;5.00;93.10;;;;;;5051981;28;20332;-68
2021/01/07 00:46:59;;;;;;;25.23;12.57;;;5.00;93.10;;;;;;5052361;28;20368;-69
2021/01/07 00:49:25;;;;;;;22.48;11.65;;;5.00;93.00;;;;;;5053103;28;20047;-69
2021/01/07 00:51:50;;;;;;;22.55;11.27;;;4.90;93.10;;;;;;5051662;28;20021;-69
2021/01/07 00:54:18;;;;;;;18.35;9.85;;;4.90;93.10;;;;;;5053058;28;20108;-69
2021/01/07 00:56:44;;;;;;;16.83;9.80;;;4.90;93.10;;;;;;5051628;28;20029;-69
2021/01/07 00:59:10;;;;;;;18.88;9.73;;;4.90;93.10;;;;;;5051919;28;20029;-69
2021/01/07 01:01:44;;;;;;;17.73;9.13;;;4.90;93.00;;;;;;5051690;28;20054;-69
2021/01/07 01:04:10;;;;;;;18.63;9.32;;;4.90;93.20;;;;;;5051684;28;20029;-69
2021/01/07 01:06:36;;;;;;;23.77;10.93;;;4.90;93.10;;;;;;5053139;28;20025;-69
2021/01/07 01:09:03;;;;;;;16.23;9.07;;;4.90;93.10;;;;;;5057142;28;20025;-69
2021/01/07 01:11:29;;;;;;;25.45;12.07;;;4.90;93.10;;;;;;5055544;28;20047;-69
2021/01/07 01:13:55;;;;;;;33.35;14.02;;;4.90;93.20;;;;;;5055744;28;20029;-68
2021/01/07 01:16:26;;;;;;;20.40;10.43;;;4.90;93.20;;;;;;5056823;28;20030;-69
2021/01/07 01:18:52;;;;;;;33.28;14.57;;;4.90;93.30;;;;;;5057137;28;20013;-69
2021/01/07 01:21:18;;;;;;;27.67;12.13;;;4.80;93.20;;;;;;5055537;28;20111;-69
2021/01/07 01:23:44;;;;;;;38.85;15.35;;;4.80;93.20;;;;;;5056659;28;20077;-69
2021/01/07 01:26:09;;;;;;;20.27;10.25;;;4.80;93.30;;;;;;5056549;28;20048;-69
2021/01/07 01:28:35;;;;;;;21.42;11.00;;;4.80;93.20;;;;;;5056465;28;20028;-68
2021/01/07 01:31:01;;;;;;;18.00;9.68;;;4.80;93.30;;;;;;5056665;28;20033;-68
2021/01/07 01:33:27;;;;;;;21.83;11.57;;;4.80;93.30;;;;;;5055519;28;20036;-69
2021/01/07 01:35:52;;;;;;;19.58;10.75;;;4.80;93.20;;;;;;5054936;28;20463;-69
2021/01/07 01:38:18;;;;;;;22.92;11.50;;;4.80;93.20;;;;;;5056638;28;20029;-69
2021/01/07 01:40:44;;;;;;;21.98;11.48;;;4.80;93.20;;;;;;5056336;28;20491;-69
2021/01/07 01:43:09;;;;;;;24.73;11.20;;;4.80;93.30;;;;;;5056487;28;20028;-69
2021/01/07 01:45:35;;;;;;;21.58;12.18;;;4.80;93.30;;;;;;5055286;28;20032;-68
2021/01/07 01:48:01;;;;;;;23.58;12.13;;;4.80;93.30;;;;;;5056097;28;20029;-68
2021/01/07 01:50:27;;;;;;;37.50;18.15;;;4.80;93.40;;;;;;5049874;28;20112;-69
2021/01/07 01:52:52;;;;;;;25.48;12.23;;;4.70;93.30;;;;;;5056109;28;20478;-68
2021/01/07 01:55:18;;;;;;;20.23;11.75;;;4.70;93.30;;;;;;5055056;28;20040;-68
2021/01/07 01:57:47;;;;;;;27.50;14.70;;;4.70;93.20;;;;;;5056211;28;20489;-68
2021/01/07 02:00:13;;;;;;;24.70;13.95;;;4.70;93.20;;;;;;5054641;28;20025;-69
2021/01/07 02:02:39;;;;;;;21.77;10.70;;;4.70;93.20;;;;;;5056449;28;20110;-68
2021/01/07 02:05:05;;;;;;;22.50;10.98;;;4.70;93.20;;;;;;5054824;28;20056;-68
2021/01/07 02:07:33;;;;;;;19.15;11.13;;;4.60;93.10;;;;;;5054267;28;20029;-68
2021/01/07 02:10:02;;;;;;;24.88;11.30;;;4.60;93.20;;;;;;5054672;28;20029;-68
2021/01/07 02:12:27;;;;;;;21.83;11.55;;;4.60;93.20;;;;;;5054577;28;20051;-69
2021/01/07 02:14:53;;;;;;;23.50;11.77;;;4.60;93.30;;;;;;5054726;28;20094;-67
2021/01/07 02:17:19;;;;;;;25.40;11.85;;;4.60;93.40;;;;;;5054188;28;20115;-67
2021/01/07 02:19:44;;;;;;;25.13;12.32;;;4.60;93.30;;;;;;5053986;28;20112;-67
2021/01/07 02:22:12;;;;;;;25.13;11.68;;;4.50;93.30;;;;;;5054152;28;20086;-70
2021/01/07 02:24:38;;;;;;;24.08;11.82;;;4.50;93.20;;;;;;5054393;28;20024;-68
2021/01/07 02:27:04;;;;;;;23.42;11.07;;;4.50;93.30;;;;;;5055808;28;20025;-68
2021/01/07 02:29:30;;;;;;;30.63;13.95;;;4.50;93.30;;;;;;5054316;28;20021;-68
2021/01/07 02:31:55;;;;;;;24.65;12.63;;;4.50;93.30;;;;;;5054070;28;20387;-68
2021/01/07 02:34:21;;;;;;;25.58;11.75;;;4.40;93.20;;;;;;5054267;28;20486;-68
2021/01/07 02:36:47;;;;;;;29.42;13.10;;;4.40;93.40;;;;;;5055519;28;20082;-68
2021/01/07 02:39:12;;;;;;;24.80;11.65;;;4.40;93.50;;;;;;5055733;28;20021;-68
2021/01/07 02:41:38;;;;;;;26.23;11.85;;;4.40;93.50;;;;;;5055076;28;20055;-68
2021/01/07 02:44:04;;;;;;;22.83;10.23;;;4.40;93.60;;;;;;5055140;28;20459;-68
2021/01/07 02:46:30;;;;;;;21.45;10.63;;;4.40;93.50;;;;;;5055532;28;20029;-68
2021/01/07 02:48:55;;;;;;;21.27;10.57;;;4.40;93.60;;;;;;5055341;28;20027;-68
2021/01/07 02:51:21;;;;;;;25.10;10.52;;;4.40;93.60;;;;;;5054859;28;20051;-68
2021/01/07 02:53:47;;;;;;;18.83;9.38;;;4.40;93.50;;;;;;5054040;28;20025;-68
2021/01/07 02:56:12;;;;;;;23.30;10.38;;;4.40;93.40;;;;;;5055119;28;20032;-68
2021/01/07 02:58:38;;;;;;;21.25;11.00;;;4.40;93.50;;;;;;5054699;28;20044;-68
2021/01/07 03:01:04;;;;;;;22.50;10.35;;;4.30;93.50;;;;;;5055437;28;20062;-68
2021/01/07 03:03:29;;;;;;;22.35;11.55;;;4.40;93.60;;;;;;5054876;28;20474;-68
2021/01/07 03:05:55;;;;;;;21.77;10.23;;;4.30;93.70;;;;;;5053307;28;20071;-68
2021/01/07 03:08:21;;;;;;;27.77;12.45;;;4.40;93.70;;;;;;5054967;28;20135;-69
2021/01/07 03:10:47;;;;;;;20.33;10.02;;;4.40;93.80;;;;;;5055034;28;20021;-68
2021/01/07 03:13:12;;;;;;;22.02;10.68;;;4.40;94.00;;;;;;5053861;28;20040;-69
2021/01/07 03:15:38;;;;;;;19.35;9.38;;;4.40;94.00;;;;;;5053338;28;20024;-69
2021/01/07 03:18:04;;;;;;;22.23;10.75;;;4.40;94.10;;;;;;5054470;28;20021;-68
2021/01/07 03:20:29;;;;;;;26.50;12.23;;;4.50;93.90;;;;;;5052987;28;20056;-68
2021/01/07 03:22:55;;;;;;;26.13;11.45;;;4.50;93.90;;;;;;5055146;28;20101;-68
2021/01/07 03:25:21;;;;;;;26.77;12.15;;;4.50;93.80;;;;;;5054518;28;20047;-68
2021/01/07 03:27:47;;;;;;;24.52;11.35;;;4.50;93.80;;;;;;5053373;28;20459;-68
2021/01/07 03:30:13;;;;;;;21.67;10.85;;;4.50;93.80;;;;;;5053278;28;20029;-68
2021/01/07 03:32:39;;;;;;;20.55;10.05;;;4.50;93.80;;;;;;5052898;28;20025;-68
2021/01/07 03:35:06;;;;;;;16.90;9.40;;;4.40;93.80;;;;;;5054337;28;20032;-68
2021/01/07 03:37:32;;;;;;;20.88;9.52;;;4.40;93.80;;;;;;5054505;28;20029;-68
2021/01/07 03:39:58;;;;;;;20.98;9.63;;;4.40;93.70;;;;;;5052989;28;20048;-68
2021/01/07 03:42:24;;;;;;;21.05;10.25;;;4.40;93.70;;;;;;5054222;28;20087;-69
2021/01/07 03:44:50;;;;;;;28.65;13.07;;;4.40;93.80;;;;;;5054304;28;20017;-65
2021/01/07 03:47:16;;;;;;;27.13;12.50;;;4.40;93.60;;;;;;5054165;28;20029;-64
2021/01/07 03:49:41;;;;;;;29.05;11.93;;;4.30;93.50;;;;;;5052445;28;20027;-64
2021/01/07 03:52:07;;;;;;;24.60;10.38;;;4.30;93.60;;;;;;5053905;28;20031;-64
2021/01/07 03:54:33;;;;;;;24.17;11.00;;;4.30;93.60;;;;;;5052678;28;20021;-64
2021/01/07 03:56:58;;;;;;;24.35;11.23;;;4.30;93.70;;;;;;5052777;28;20041;-64
2021/01/07 03:59:24;;;;;;;28.23;11.80;;;4.20;93.70;;;;;;5053851;28;20063;-64
2021/01/07 04:01:50;;;;;;;28.25;11.18;;;4.20;93.50;;;;;;5052439;28;20021;-65
2021/01/07 04:04:15;;;;;;;37.88;11.75;;;4.20;93.50;;;;;;5053667;28;20035;-65
2021/01/07 04:06:41;;;;;;;31.65;10.50;;;4.10;93.50;;;;;;5052483;28;20561;-65
2021/01/07 04:09:07;;;;;;;82.05;12.60;;;4.10;93.50;;;;;;5054112;28;20029;-65
2021/01/07 04:11:32;;;;;;;77.57;13.40;;;4.00;93.50;;;;;;5053619;28;20055;-66
2021/01/07 04:13:58;;;;;;;73.18;12.90;;;4.00;93.40;;;;;;5053596;28;20040;-65
2021/01/07 04:16:25;;;;;;;69.78;17.20;;;3.90;93.40;;;;;;5052382;28;20031;-65
2021/01/07 04:18:51;;;;;;;144.43;31.77;;;3.90;93.60;;;;;;5052039;28;20021;-65
2021/01/07 04:21:20;;;;;;;94.53;32.45;;;3.90;93.60;;;;;;5052418;28;20455;-65
2021/01/07 04:23:47;;;;;;;128.88;38.05;;;3.80;93.60;;;;;;5053507;28;20028;-65
2021/01/07 04:26:15;;;;;;;120.40;45.20;;;3.80;93.80;;;;;;5051992;28;20025;-65
2021/01/07 04:28:41;;;;;;;87.57;35.15;;;3.80;93.90;;;;;;5053222;28;20027;-70
2021/01/07 04:31:06;;;;;;;54.15;24.52;;;3.80;94.00;;;;;;5052114;28;20127;-65
2021/01/07 04:33:32;;;;;;;50.50;21.88;;;3.90;94.20;;;;;;5053209;28;20374;-65
2021/01/07 04:35:58;;;;;;;45.17;18.48;;;3.90;94.30;;;;;;5052979;28;20029;-64
2021/01/07 04:38:23;;;;;;;41.85;21.17;;;4.00;94.30;;;;;;5053353;28;20105;-65
2021/01/07 04:40:50;;;;;;;45.58;18.83;;;4.00;94.30;;;;;;5052671;28;20370;-65
2021/01/07 04:43:15;;;;;;;62.53;24.73;;;4.00;94.40;;;;;;5053243;28;20025;-65
2021/01/07 04:45:41;;;;;;;39.75;17.58;;;4.10;94.50;;;;;;5052921;28;20032;-74
2021/01/07 04:48:08;;;;;;;37.28;16.52;;;4.10;94.50;;;;;;5052723;28;20032;-64
2021/01/07 04:50:34;;;;;;;32.75;14.20;;;4.10;94.50;;;;;;5052048;28;20029;-65
2021/01/07 04:53:02;;;;;;;30.92;12.90;;;4.10;94.50;;;;;;5051667;28;20040;-65
2021/01/07 04:55:28;;;;;;;30.65;13.00;;;4.10;94.50;;;;;;5051739;28;20033;-65
2021/01/07 04:57:54;;;;;;;28.85;12.63;;;4.20;94.60;;;;;;5052701;28;20031;-65
2021/01/07 05:00:20;;;;;;;27.38;13.25;;;4.20;94.60;;;;;;5051401;28;20120;-66
2021/01/07 05:02:47;;;;;;;27.10;11.45;;;4.20;94.60;;;;;;5051786;28;20037;-65
2021/01/07 05:05:13;;;;;;;30.70;12.48;;;4.20;94.70;;;;;;5051674;28;20043;-65
2021/01/07 05:07:40;;;;;;;26.30;12.50;;;4.30;94.70;;;;;;5051777;28;20500;-65
2021/01/07 05:10:09;;;;;;;29.98;13.23;;;4.30;94.70;;;;;;5051239;28;20021;-65
2021/01/07 05:12:36;;;;;;;29.48;13.57;;;4.30;94.70;;;;;;5051760;28;20475;-65
2021/01/07 05:15:04;;;;;;;31.65;13.48;;;4.30;94.80;;;;;;5051552;28;20467;-66
2021/01/07 05:17:29;;;;;;;31.77;14.27;;;4.30;94.80;;;;;;5052841;28;20033;-65
2021/01/07 05:19:55;;;;;;;37.33;14.77;;;4.40;94.90;;;;;;5052820;28;20021;-66
2021/01/07 05:22:41;;;;;;;37.47;14.52;;;4.40;94.90;;;;;;5051221;28;20486;-65
2021/01/07 05:25:14;;;;;;;29.65;12.85;;;4.40;94.80;;;;;;5051087;28;20124;-65
2021/01/07 05:27:41;;;;;;;30.55;13.18;;;4.40;94.60;;;;;;5050868;28;20036;-64
2021/01/07 05:30:12;;;;;;;46.63;20.65;;;4.40;94.50;;;;;;5052417;28;20037;-64
2021/01/07 05:32:42;;;;;;;49.25;16.88;;;4.30;94.50;;;;;;5052524;28;20446;-64
2021/01/07 05:35:19;;;;;;;58.65;19.83;;;4.30;94.50;;;;;;5051702;28;20033;-65
2021/01/07 05:37:45;;;;;;;47.92;17.92;;;4.30;94.50;;;;;;5051293;28;20021;-65
2021/01/07 05:40:11;;;;;;;40.60;15.00;;;4.30;94.50;;;;;;5050996;28;20048;-65
2021/01/07 05:42:42;;;;;;;34.75;13.60;;;4.30;94.50;;;;;;5052577;28;20033;-65
2021/01/07 05:45:10;;;;;;;37.38;15.63;;;4.20;94.60;;;;;;5051392;28;20032;-65
2021/01/07 05:47:42;;;;;;;54.15;15.80;;;4.20;94.50;;;;;;5051285;28;20029;-65
2021/01/07 05:50:09;;;;;;;72.63;14.80;;;4.20;94.50;;;;;;5052318;28;20463;-65
2021/01/07 05:52:44;;;;;;;70.88;15.27;;;4.20;94.40;;;;;;5052180;28;20029;-65
2021/01/07 05:55:14;;;;;;;108.40;17.50;;;4.10;94.30;;;;;;5055251;28;20063;-65
2021/01/07 05:57:41;;;;;;;96.30;18.67;;;4.10;94.30;;;;;;5056247;28;20252;-65
2021/01/07 06:00:17;;;;;;;103.70;20.27;;;4.10;94.30;;;;;;5054489;28;20475;-65
2021/01/07 06:02:45;;;;;;;82.97;17.80;;;4.10;94.50;;;;;;5054770;28;20029;-66
2021/01/07 06:05:13;;;;;;;133.95;23.70;;;4.10;94.70;;;;;;5054406;28;20025;-65
2021/01/07 06:07:39;;;;;;;90.20;28.20;;;4.10;94.70;;;;;;5056175;28;20036;-65
2021/01/07 06:10:08;;;;;;;85.85;24.50;;;4.10;94.80;;;;;;5054439;28;20029;-65
2021/01/07 06:12:33;;;;;;;86.80;23.77;;;4.10;95.00;;;;;;5056103;28;20519;-65
2021/01/07 06:15:05;;;;;;;78.82;21.00;;;4.20;95.10;;;;;;5054559;28;20125;-65
2021/01/07 06:17:31;;;;;;;72.22;19.50;;;4.20;95.20;;;;;;5054629;28;20482;-65
2021/01/07 06:19:57;;;;;;;75.35;19.75;;;4.20;95.20;;;;;;5054299;28;20025;-65
2021/01/07 06:22:23;;;;;;;71.70;21.58;;;4.30;95.30;;;;;;5054392;28;20029;-65
2021/01/07 06:24:55;;;;;;;68.93;21.27;;;4.30;95.40;;;;;;5054461;28;20021;-65
2021/01/07 06:27:29;;;;;;;78.60;26.70;;;4.40;95.40;;;;;;5054199;28;20072;-65
2021/01/07 06:30:07;;;;;;;113.65;33.40;;;4.40;95.40;;;;;;5055490;28;20020;-65
2021/01/07 06:32:33;;;;;;;79.32;23.00;;;4.40;95.30;;;;;;5055444;28;20029;-64
2021/01/07 06:35:00;;;;;;;73.95;21.88;;;4.40;95.40;;;;;;5054377;28;20058;-65
2021/01/07 06:37:50;;;;;;;65.10;21.58;;;4.50;95.50;;;;;;5054092;28;20490;-64
2021/01/07 06:40:18;;;;;;;72.43;22.38;;;4.50;95.50;;;;;;5054692;28;20052;-65
2021/01/07 06:42:49;;;;;;;65.60;22.70;;;4.60;95.50;;;;;;5053929;28;20111;-65
2021/01/07 06:45:15;;;;;;;85.55;24.63;;;4.60;95.50;;;;;;5055516;28;20021;-65
2021/01/07 06:47:46;;;;;;;71.88;22.75;;;4.60;95.40;;;;;;5055195;28;20032;-65
2021/01/07 06:50:13;;;;;;;72.40;23.08;;;4.60;95.50;;;;;;5053658;28;20036;-65
2021/01/07 06:52:41;;;;;;;68.22;24.13;;;4.60;95.60;;;;;;5053612;28;20135;-65
2021/01/07 06:55:15;;;;;;;67.72;23.42;;;4.70;95.50;;;;;;5053804;28;20033;-66
2021/01/07 06:57:57;;;;;;;69.50;22.95;;;4.70;95.70;;;;;;5053724;28;20067;-66
2021/01/07 07:00:27;;;;;;;62.13;23.20;;;4.70;95.60;;;;;;5053683;28;20021;-65
2021/01/07 07:03:11;;;;;;;58.53;22.65;;;4.70;95.70;;;;;;5055063;28;20033;-65
2021/01/07 07:05:39;;;;;;;83.90;26.95;;;4.70;95.60;;;;;;5039770;28;20021;-66
2021/01/07 07:08:12;;;;;;;66.63;23.75;;;4.80;95.60;;;;;;5053561;28;20025;-66
2021/01/07 07:10:37;;;;;;;96.55;28.83;;;4.80;95.70;;;;;;5054740;28;20032;-65
2021/01/07 07:13:31;;;;;;;58.55;21.40;;;4.80;95.60;;;;;;5054799;28;20041;-65
2021/01/07 07:16:02;;;;;;;52.65;18.90;;;4.80;95.50;;;;;;5037226;28;20036;-65
2021/01/07 07:18:30;;;;;;;48.08;19.20;;;4.80;95.50;;;;;;5049014;28;20021;-64
2021/01/07 07:20:56;;;;;;;56.45;20.70;;;4.80;95.50;;;;;;5040886;28;20029;-64
2021/01/07 07:23:24;;;;;;;67.07;23.17;;;4.80;95.60;;;;;;5053499;28;20027;-64
2021/01/07 07:25:55;;;;;;;74.45;24.38;;;4.80;95.60;;;;;;5052906;28;20027;-78
2021/01/07 07:28:24;;;;;;;68.90;24.40;;;4.80;95.60;;;;;;5054558;28;20104;-65
2021/01/07 07:30:51;;;;;;;61.60;23.35;;;4.80;95.60;;;;;;5053067;28;20021;-64
2021/01/07 07:33:36;;;;;;;57.55;23.33;;;4.90;95.70;;;;;;5053289;28;20127;-65
2021/01/07 07:36:04;;;;;;;67.70;24.52;;;4.90;95.80;;;;;;5052712;28;20032;-65
2021/01/07 07:38:35;;;;;;;72.80;24.40;;;4.90;95.90;;;;;;5052997;28;20025;-65
2021/01/07 07:41:09;;;;;;;72.35;28.55;;;4.90;95.90;;;;;;5052706;28;20443;-65
2021/01/07 07:43:36;;;;;;;86.82;29.30;;;5.00;95.90;;;;;;5054505;28;20029;-65
2021/01/07 07:46:04;;;;;;;72.03;26.77;;;5.00;95.90;;;;;;5053902;28;20031;-64
2021/01/07 07:48:33;;;;;;;69.90;26.50;;;5.00;95.90;;;;;;5052872;28;20033;-65
2021/01/07 07:51:13;;;;;;;81.30;27.13;;;5.10;96.00;;;;;;5052324;28;20033;-65
2021/01/07 07:53:40;;;;;;;73.75;25.55;;;5.10;96.00;;;;;;5054019;28;20029;-65
2021/01/07 07:56:22;;;;;;;73.47;26.15;;;5.10;96.20;;;;;;5052324;28;20029;-65
2021/01/07 07:58:48;;;;;;;113.55;34.63;;;5.10;96.20;;;;;;5052502;28;20114;-65
2021/01/07 08:01:14;;;;;;;70.50;26.42;;;5.20;96.20;;;;;;5052468;28;20029;-65
2021/01/07 08:03:40;;;;;;;77.72;27.08;;;5.20;96.30;;;;;;5053503;28;20020;-65
2021/01/07 08:06:06;;;;;;;63.97;22.70;;;5.30;96.20;;;;;;5053393;28;20087;-64
2021/01/07 08:08:33;;;;;;;74.40;26.52;;;5.30;96.30;;;;;;5053911;28;20434;-65
2021/01/07 08:11:00;;;;;;;58.05;21.70;;;5.30;96.40;;;;;;5052404;28;20471;-65
2021/01/07 08:13:29;;;;;;;62.63;24.80;;;5.40;96.30;;;;;;5052541;28;20552;-65
2021/01/07 08:15:57;;;;;;;73.95;28.27;;;5.50;96.40;;;;;;5051621;28;20455;-64
2021/01/07 08:18:30;;;;;;;68.10;27.60;;;5.50;96.40;;;;;;5052243;28;20355;-65
2021/01/07 08:21:08;;;;;;;83.13;28.95;;;5.60;96.20;;;;;;5038704;28;20393;-65
2021/01/07 08:23:34;;;;;;;61.20;27.23;;;5.60;96.10;;;;;;5053683;28;20029;-65
2021/01/07 08:26:02;;;;;;;58.65;24.58;;;5.60;96.10;;;;;;5038042;28;20021;-65
2021/01/07 08:28:37;;;;;;;74.38;30.67;;;5.60;96.00;;;;;;5052229;28;20029;-65
2021/01/07 08:31:18;;;;;;;44.92;21.60;;;5.60;96.00;;;;;;5051883;28;20028;-65
2021/01/07 08:33:45;;;;;;;51.60;24.33;;;5.70;96.10;;;;;;5052304;28;20120;-64
2021/01/07 08:36:13;;;;;;;65.32;27.05;;;5.70;96.00;;;;;;5051826;28;20516;-64
2021/01/07 08:38:39;;;;;;;70.32;28.75;;;5.70;96.10;;;;;;5053173;28;20017;-65
2021/01/07 08:41:16;;;;;;;63.47;27.77;;;5.70;96.10;;;;;;5051306;28;20095;-64
2021/01/07 08:43:44;;;;;;;68.88;29.40;;;5.80;96.40;;;;;;5052068;28;20036;-65
2021/01/07 08:46:41;;;;;;;72.70;27.50;;;5.80;96.40;;;;;;5051443;28;20495;-64
2021/01/07 08:49:07;;;;;;;78.88;31.48;;;5.90;96.50;;;;;;5053097;28;20031;-67
2021/01/07 08:51:44;;;;;;;77.32;32.30;;;5.90;96.30;;;;;;5051697;28;20461;-69
2021/01/07 08:54:15;;;;;;;68.90;28.05;;;5.90;96.30;;;;;;5051896;28;20033;-65
2021/01/07 08:56:42;;;;;;;76.65;28.23;;;5.90;96.20;;;;;;5052064;28;20035;-65
2021/01/07 08:59:21;;;;;;;74.38;26.98;;;6.00;96.20;;;;;;5053031;28;20071;-66
2021/01/07 09:01:52;;;;;;;77.05;28.85;;;6.00;95.90;;;;;;5051592;28;20033;-66
2021/01/07 09:04:32;;;;;;;83.97;30.00;;;5.90;95.80;;;;;;5051565;28;20060;-66
2021/01/07 09:07:13;;;;;;;138.27;26.35;;;5.90;95.80;;;;;;5051608;28;20033;-65
2021/01/07 09:09:41;;;;;;;138.98;29.35;;;5.90;95.50;;;;;;5051727;28;20060;-66
2021/01/07 09:12:30;;;;;;;166.95;30.55;;;5.70;94.50;;;;;;5051101;28;20135;-66
2021/01/07 09:15:10;;;;;;;280.08;52.92;;;5.50;94.00;;;;;;5051902;28;20036;-66
2021/01/07 09:17:43;;;;;;;209.05;50.35;;;5.30;94.00;;;;;;5051983;28;20375;-65
2021/01/07 09:20:17;;;;;;;160.63;43.67;;;5.10;93.90;;;;;;5051329;28;20394;-65
2021/01/07 09:22:43;;;;;;;132.75;37.08;;;5.00;94.10;;;;;;5038448;28;20029;-64
2021/01/07 09:25:15;;;;;;;102.22;37.17;;;4.90;94.30;;;;;;5051372;28;20094;-65
2021/01/07 09:27:40;;;;;;;99.70;35.65;;;4.90;94.80;;;;;;5052870;28;20021;-66
2021/01/07 09:30:07;;;;;;;110.43;35.33;;;4.90;95.00;;;;;;5055226;28;20108;-66
2021/01/07 09:32:33;;;;;;;91.60;35.75;;;4.90;95.00;;;;;;5055172;28;20024;-66
2021/01/07 09:34:58;;;;;;;79.05;27.20;;;4.90;95.10;;;;;;5055634;28;20124;-66
2021/01/07 09:37:24;;;;;;;53.65;21.02;;;4.90;95.30;;;;;;5056361;28;20021;-66
2021/01/07 09:39:52;;;;;;;65.03;23.02;;;4.90;95.30;;;;;;5054420;28;20391;-67
2021/01/07 09:42:28;;;;;;;57.63;24.27;;;4.90;95.10;;;;;;5053669;28;20029;-65
2021/01/07 09:44:55;;;;;;;52.50;22.58;;;4.90;95.20;;;;;;5055314;28;20109;-65
2021/01/07 09:47:21;;;;;;;51.30;20.67;;;4.90;95.30;;;;;;5053785;28;20032;-65
2021/01/07 09:49:47;;;;;;;45.67;20.30;;;4.90;95.40;;;;;;5054829;28;20047;-65
2021/01/07 09:52:13;;;;;;;41.58;20.20;;;5.00;95.60;;;;;;5053384;28;20043;-65
2021/01/07 09:54:39;;;;;;;55.38;24.95;;;5.00;95.70;;;;;;5054775;28;20021;-66
2021/01/07 09:57:05;;;;;;;50.80;24.10;;;5.00;95.80;;;;;;5055180;28;20028;-65
2021/01/07 09:59:31;;;;;;;49.90;23.38;;;5.00;95.70;;;;;;5053566;28;20025;-65
2021/01/07 10:01:59;;;;;;;62.92;28.77;;;5.10;95.70;;;;;;5053226;28;20475;-64
2021/01/07 10:04:25;;;;;;;61.25;26.98;;;5.10;95.70;;;;;;5053403;28;20025;-66
2021/01/07 10:06:51;;;;;;;57.70;24.92;;;5.10;95.70;;;;;;5053135;28;20036;-66
2021/01/07 10:09:18;;;;;;;51.55;24.42;;;5.10;95.70;;;;;;5053882;28;20040;-66
2021/01/07 10:11:48;;;;;;;51.30;25.15;;;5.20;95.80;;;;;;5053250;28;20036;-65
2021/01/07 10:14:14;;;;;;;51.85;23.88;;;5.20;95.80;;;;;;5053435;28;20024;-65
2021/01/07 10:16:39;;;;;;;50.75;23.02;;;5.20;96.00;;;;;;5053343;28;20036;-66
2021/01/07 10:19:05;;;;;;;53.83;24.90;;;5.30;96.30;;;;;;5054439;28;20017;-66
2021/01/07 10:21:38;;;;;;;57.00;27.23;;;5.40;96.40;;;;;;5054590;28;20099;-66
2021/01/07 10:24:05;;;;;;;51.10;23.23;;;5.50;96.60;;;;;;5053047;28;20021;-66
2021/01/07 10:26:32;;;;;;;40.60;20.08;;;5.60;96.70;;;;;;5054726;28;20029;-66
2021/01/07 10:28:58;;;;;;;40.55;19.80;;;5.70;96.60;;;;;;5054505;28;20028;-66
2021/01/07 10:31:24;;;;;;;38.75;17.95;;;5.80;96.60;;;;;;5053074;28;20029;-66
2021/01/07 10:33:50;;;;;;;41.55;19.13;;;5.80;96.40;;;;;;5053930;28;20044;-67
2021/01/07 10:36:17;;;;;;;40.13;17.67;;;5.80;96.30;;;;;;5054501;28;20056;-66
2021/01/07 10:38:48;;;;;;;40.17;18.08;;;5.90;96.20;;;;;;5052883;28;20072;-66
2021/01/07 10:41:15;;;;;;;39.08;18.17;;;5.90;96.20;;;;;;5022521;28;923818;-65
2021/01/07 10:43:40;;;;;;;54.25;24.95;;;5.90;96.10;;;;;;5054249;28;20037;-66
2021/01/07 10:46:07;;;;;;;56.58;27.88;;;5.90;96.00;;;;;;5053769;28;20144;-66
2021/01/07 10:48:41;;;;;;;53.08;26.92;;;5.90;96.00;;;;;;5054018;28;20044;-66
2021/01/07 10:51:08;;;;;;;40.28;19.80;;;5.90;95.70;;;;;;5053895;28;20486;-65
2021/01/07 10:54:01;;;;;;;38.83;17.83;;;5.80;95.60;;;;;;5053897;28;20433;-65
2021/01/07 10:56:56;;;;;;;47.53;19.30;;;5.80;95.40;;;;;;5053661;28;20383;-65
2021/01/07 10:59:57;;;;;;;36.30;17.65;;;5.70;95.40;;;;;;5054246;28;20033;-66
2021/01/07 11:02:56;;;;;;;27.15;13.82;;;5.70;95.30;;;;;;5042797;28;20029;-66
2021/01/07 11:05:36;;;;;;;26.35;14.25;;;5.60;95.40;;;;;;5053383;28;20024;-66
2021/01/07 11:08:15;;;;;;;24.98;13.40;;;5.60;95.50;;;;;;5054817;28;20021;-65
2021/01/07 11:10:50;;;;;;;25.27;14.02;;;5.50;95.60;;;;;;5054633;28;20119;-66
2021/01/07 11:13:20;;;;;;;21.60;12.45;;;5.60;95.70;;;;;;5053403;28;20127;-66
2021/01/07 11:15:48;;;;;;;28.90;14.88;;;5.60;95.70;;;;;;5053425;28;20025;-67
2021/01/07 11:18:23;;;;;;;24.90;13.93;;;5.60;95.80;;;;;;5053255;28;20040;-65
2021/01/07 11:20:57;;;;;;;24.90;12.23;;;5.60;95.90;;;;;;5053249;28;20078;-65
2021/01/07 11:23:24;;;;;;;25.02;12.38;;;5.60;95.90;;;;;;5053369;28;20123;-65
2021/01/07 11:25:50;;;;;;;23.23;12.45;;;5.60;95.80;;;;;;5052758;28;20066;-72
2021/01/07 11:28:19;;;;;;;22.75;11.63;;;5.60;95.80;;;;;;5053377;28;20036;-65
2021/01/07 11:30:46;;;;;;;25.15;13.55;;;5.50;95.70;;;;;;5053127;28;20023;-66
2021/01/07 11:33:16;;;;;;;21.02;12.40;;;5.50;95.60;;;;;;5054245;28;20029;-66
2021/01/07 11:35:44;;;;;;;22.38;12.77;;;5.50;95.40;;;;;;5054328;28;20120;-66
2021/01/07 11:38:22;;;;;;;23.63;11.98;;;5.40;95.40;;;;;;5053019;28;20029;-65
2021/01/07 11:41:01;;;;;;;19.45;11.35;;;5.40;95.50;;;;;;5052831;28;20049;-65
2021/01/07 11:43:48;;;;;;;25.50;12.60;;;5.30;95.60;;;;;;5054498;28;20028;-66
2021/01/07 11:46:18;;;;;;;22.10;12.38;;;5.30;95.70;;;;;;5053840;28;20023;-65
2021/01/07 11:48:57;;;;;;;24.55;12.95;;;5.30;95.90;;;;;;5054189;28;20024;-66
2021/01/07 11:51:24;;;;;;;27.05;13.55;;;5.30;95.80;;;;;;5051692;28;20067;-66
2021/01/07 11:53:50;;;;;;;26.05;13.77;;;5.30;95.90;;;;;;5052516;28;20029;-73
2021/01/07 11:56:17;;;;;;;23.60;13.07;;;5.40;96.00;;;;;;5052382;28;20188;-66
2021/01/07 11:58:45;;;;;;;24.75;13.70;;;5.30;96.00;;;;;;5052403;28;20031;-65
2021/01/07 12:01:10;;;;;;;25.15;13.68;;;5.40;96.10;;;;;;5052522;28;20025;-66
2021/01/07 12:03:36;;;;;;;32.03;15.18;;;5.40;96.20;;;;;;5053444;28;20562;-65
2021/01/07 12:06:06;;;;;;;29.23;15.90;;;5.40;96.30;;;;;;5053742;28;20025;-65
2021/01/07 12:08:52;;;;;;;25.50;14.65;;;5.50;96.40;;;;;;5052232;28;20021;-65
2021/01/07 12:11:32;;;;;;;29.42;15.50;;;5.50;96.50;;;;;;5052403;28;20387;-66
2021/01/07 12:14:15;;;;;;;28.67;14.63;;;5.50;96.50;;;;;;5053106;28;20045;-65
2021/01/07 12:16:52;;;;;;;33.30;15.50;;;5.60;96.50;;;;;;5052521;28;20029;-65
2021/01/07 12:19:21;;;;;;;36.67;17.65;;;5.60;96.40;;;;;;5040406;28;20025;-65
2021/01/07 12:21:49;;;;;;;39.60;19.38;;;5.60;96.50;;;;;;5053210;28;20028;-66
2021/01/07 12:24:19;;;;;;;33.90;17.98;;;5.60;96.50;;;;;;5051761;28;20029;-65
2021/01/07 12:26:49;;;;;;;25.77;13.93;;;5.70;96.60;;;;;;5052446;28;20452;-65
2021/01/07 12:29:22;;;;;;;21.70;12.30;;;5.70;96.40;;;;;;5053317;28;20429;-65
2021/01/07 12:31:54;;;;;;;24.05;13.40;;;5.60;96.40;;;;;;5053155;28;20064;-66
2021/01/07 12:34:57;;;;;;;20.92;11.73;;;5.60;96.30;;;;;;5052918;28;20025;-66
2021/01/07 12:37:28;;;;;;;22.08;12.82;;;5.60;96.30;;;;;;5053037;28;20421;-66
2021/01/07 12:40:06;;;;;;;20.92;11.27;;;5.60;96.20;;;;;;5051546;28;20064;-66
2021/01/07 12:42:57;;;;;;;23.38;12.30;;;5.60;96.20;;;;;;5051872;28;20033;-64
2021/01/07 12:45:23;;;;;;;21.05;11.57;;;5.60;96.20;;;;;;5052283;28;20047;-66